Terminal Aerodrome Forecast
Issued by NWS Shreveport, LA

Home | Current Version | Previous Version | Text Only | Print | Product List | Glossary On
Versions: 1 2 3 4 5 6 7 8 9 10 11 12 13 14 15 16 17 18 19 20 21 22 23
000
FTUS44 KSHV 281143
TAFMLU
TAF
KMLU 281143Z 2812/2912 12005KT P6SM SCT015 BKN025 OVC035
      TEMPO 2812/2815 OVC015
     FM281500 17012G18KT P6SM BKN015 OVC030
     FM281800 18015G25KT P6SM SCT025 BKN035
     FM290300 16011G17KT P6SM OVC020=

USA.gov is the U.S. government's official web portal to all federal, state and local government web resources and services.